createdAt,value
2024-02-13T00:00:13.218Z,6.71
2024-02-13T00:01:12.565Z,6.65
2024-02-13T00:02:12.572Z,6.60
2024-02-13T00:03:12.569Z,6.63
2024-02-13T00:04:12.506Z,6.64
2024-02-13T00:05:12.564Z,6.60
2024-02-13T00:06:12.486Z,6.65
2024-02-13T00:07:12.506Z,6.65
2024-02-13T00:08:12.744Z,6.67
2024-02-13T00:09:12.485Z,6.71
2024-02-13T00:10:12.554Z,6.65
2024-02-13T00:11:12.446Z,6.60
2024-02-13T00:12:12.453Z,6.67
2024-02-13T00:13:12.458Z,6.64
2024-02-13T00:14:12.449Z,6.63
2024-02-13T00:15:12.385Z,6.64
2024-02-13T00:16:12.374Z,6.64
2024-02-13T00:17:12.391Z,6.64
2024-02-13T00:18:12.430Z,6.64
2024-02-13T00:19:12.378Z,6.61
2024-02-13T00:20:12.365Z,6.65
2024-02-13T00:21:12.316Z,6.64
2024-02-13T00:22:12.304Z,6.60
2024-02-13T00:23:12.406Z,6.55
2024-02-13T00:24:12.304Z,6.55
2024-02-13T00:25:12.284Z,6.65
2024-02-13T00:26:12.355Z,6.65
2024-02-13T00:27:12.263Z,6.67
2024-02-13T00:28:12.295Z,6.55
2024-02-13T00:29:12.290Z,6.70
2024-02-13T00:30:12.233Z,6.63
2024-02-13T00:31:12.214Z,6.63
2024-02-13T00:32:12.218Z,6.73
2024-02-13T00:33:12.319Z,6.60
2024-02-13T00:34:12.228Z,6.65
2024-02-13T00:35:12.240Z,6.67
2024-02-13T00:36:12.161Z,6.65
2024-02-13T00:37:12.184Z,6.67
2024-02-13T00:38:12.165Z,6.70
2024-02-13T00:39:12.186Z,6.68
2024-02-13T00:40:12.169Z,6.64
2024-02-13T00:41:12.139Z,6.73
2024-02-13T00:42:12.103Z,6.71
2024-02-13T00:43:12.099Z,6.75
2024-02-13T00:44:12.136Z,6.75
2024-02-13T00:45:12.516Z,6.79
2024-02-13T00:46:12.068Z,6.82
2024-02-13T00:47:12.077Z,6.83
2024-02-13T00:48:12.082Z,6.89
2024-02-13T00:49:12.074Z,6.86
2024-02-13T00:50:12.108Z,6.79
2024-02-13T00:51:12.041Z,6.86
2024-02-13T00:52:11.983Z,6.81
2024-02-13T00:53:12.005Z,6.85
2024-02-13T00:54:12.048Z,6.79
2024-02-13T00:55:11.993Z,6.88
2024-02-13T00:56:11.994Z,6.88
2024-02-13T00:57:11.931Z,6.81
2024-02-13T00:58:11.926Z,6.79
2024-02-13T00:59:12.146Z,6.89
2024-02-13T01:00:12.601Z,6.86
2024-02-13T01:01:11.932Z,6.91
2024-02-13T01:02:11.942Z,6.89
2024-02-13T01:03:11.874Z,6.85
2024-02-13T01:04:11.934Z,6.85
2024-02-13T01:05:11.955Z,6.88
2024-02-13T01:06:11.875Z,6.85
2024-02-13T01:07:11.827Z,6.91
2024-02-13T01:08:11.932Z,6.86
2024-02-13T01:09:11.829Z,6.81
2024-02-13T01:10:11.796Z,6.81
2024-02-13T01:11:11.830Z,6.86
2024-02-13T01:12:11.787Z,6.85
2024-02-13T01:13:11.864Z,6.86
2024-02-13T01:14:11.817Z,6.79
2024-02-13T01:15:11.772Z,6.85
2024-02-13T01:16:11.734Z,6.85
2024-02-13T01:17:11.758Z,6.86
2024-02-13T01:18:11.838Z,6.79
2024-02-13T01:19:11.742Z,6.81
2024-02-13T01:20:11.701Z,6.88
2024-02-13T01:21:11.710Z,6.88
2024-02-13T01:22:11.688Z,6.86
2024-02-13T01:23:11.698Z,6.88
2024-02-13T01:24:11.664Z,6.81
2024-02-13T01:25:11.659Z,6.81
2024-02-13T01:26:11.671Z,6.78
2024-02-13T01:27:11.654Z,6.81
2024-02-13T01:28:11.610Z,6.75
2024-02-13T01:29:11.627Z,6.82
2024-02-13T01:30:11.569Z,6.74
2024-02-13T01:31:11.592Z,6.79
2024-02-13T01:32:11.602Z,6.86
2024-02-13T01:33:11.706Z,6.85
2024-02-13T01:34:11.720Z,6.85
2024-02-13T01:35:11.696Z,6.86
2024-02-13T01:36:11.535Z,6.97
2024-02-13T01:37:11.574Z,6.92
2024-02-13T01:38:11.533Z,6.85
2024-02-13T01:39:11.487Z,6.96
2024-02-13T01:40:11.476Z,6.93
2024-02-13T01:41:11.533Z,6.88
2024-02-13T01:42:11.506Z,6.97
2024-02-13T01:43:11.461Z,6.92
2024-02-13T01:44:11.466Z,6.97
2024-02-13T01:45:11.423Z,6.91
2024-02-13T01:46:11.441Z,7.03
2024-02-13T01:47:11.416Z,7.01
2024-02-13T01:48:11.671Z,7.01
2024-02-13T01:49:11.596Z,6.99
2024-02-13T01:50:11.440Z,7.00
2024-02-13T01:51:11.358Z,7.01
2024-02-13T01:52:11.336Z,7.01
2024-02-13T01:53:11.438Z,6.97
2024-02-13T01:54:11.387Z,6.96
2024-02-13T01:55:11.312Z,7.00
2024-02-13T01:56:11.321Z,6.96
2024-02-13T01:57:11.296Z,6.96
2024-02-13T01:58:11.289Z,6.92
2024-02-13T01:59:11.363Z,6.99
2024-02-13T02:00:11.253Z,7.00
2024-02-13T02:01:11.271Z,6.99
2024-02-13T02:02:11.270Z,6.97
2024-02-13T02:03:11.237Z,6.96
2024-02-13T02:04:11.273Z,7.00
2024-02-13T02:05:11.213Z,6.96
2024-02-13T02:06:11.365Z,6.96
2024-02-13T02:07:11.184Z,6.96
2024-02-13T02:08:11.189Z,6.93
2024-02-13T02:09:11.186Z,7.03
2024-02-13T02:10:11.151Z,6.97
2024-02-13T02:11:11.191Z,7.00
2024-02-13T02:12:11.122Z,7.00
2024-02-13T02:13:11.127Z,6.97
2024-02-13T02:14:11.219Z,7.01
2024-02-13T02:15:11.130Z,6.99
2024-02-13T02:16:11.080Z,7.00
2024-02-13T02:17:11.282Z,6.97
2024-02-13T02:18:11.216Z,6.99
2024-02-13T02:19:11.233Z,6.96
2024-02-13T02:20:11.108Z,7.00
2024-02-13T02:21:11.065Z,6.99
2024-02-13T02:22:11.011Z,6.99
2024-02-13T02:23:11.047Z,6.99
2024-02-13T02:24:11.020Z,7.00
2024-02-13T02:25:11.014Z,7.03
2024-02-13T02:26:11.046Z,6.92
2024-02-13T02:27:10.981Z,6.97
2024-02-13T02:28:10.953Z,6.93
2024-02-13T02:29:11.004Z,6.93
2024-02-13T02:30:10.962Z,6.92
2024-02-13T02:31:10.954Z,6.88
2024-02-13T02:32:10.998Z,6.88
2024-02-13T02:33:11.214Z,7.01
2024-02-13T02:34:10.941Z,6.91
2024-02-13T02:35:11.000Z,6.88
2024-02-13T02:36:10.889Z,6.89
2024-02-13T02:37:10.857Z,6.96
2024-02-13T02:38:10.920Z,6.91
2024-02-13T02:39:10.830Z,6.93
2024-02-13T02:40:10.825Z,6.96
2024-02-13T02:41:10.940Z,6.89
2024-02-13T02:42:10.831Z,6.92
2024-02-13T02:43:10.835Z,6.96
2024-02-13T02:44:10.832Z,6.89
2024-02-13T02:45:10.798Z,6.88
2024-02-13T02:46:10.833Z,6.91
2024-02-13T02:47:10.813Z,6.92
2024-02-13T02:48:10.917Z,6.88
2024-02-13T02:49:10.752Z,6.91
2024-02-13T02:50:10.771Z,6.89
2024-02-13T02:51:10.735Z,6.86
2024-02-13T02:52:10.692Z,6.89
2024-02-13T02:53:10.743Z,6.85
2024-02-13T02:54:10.670Z,6.92
2024-02-13T02:55:10.679Z,6.89
2024-02-13T02:56:10.717Z,6.91
2024-02-13T02:57:10.639Z,6.85
2024-02-13T02:58:10.627Z,6.83
2024-02-13T02:59:10.671Z,6.88
2024-02-13T03:00:10.615Z,6.86
2024-02-13T03:01:10.649Z,6.86
2024-02-13T03:02:10.627Z,6.85
2024-02-13T03:03:10.804Z,6.86
2024-02-13T03:04:11.807Z,6.82
2024-02-13T03:05:10.637Z,6.88
2024-02-13T03:06:10.641Z,6.88
2024-02-13T03:07:10.564Z,6.83
2024-02-13T03:08:10.575Z,6.88
2024-02-13T03:09:10.506Z,6.86
2024-02-13T03:10:10.506Z,6.81
2024-02-13T03:11:10.539Z,6.85
2024-02-13T03:12:10.499Z,6.81
2024-02-13T03:13:10.500Z,6.79
2024-02-13T03:14:10.508Z,6.75
2024-02-13T03:15:10.465Z,6.79
2024-02-13T03:16:10.434Z,6.61
2024-02-13T03:17:10.468Z,6.78
2024-02-13T03:18:10.523Z,6.75
2024-02-13T03:19:10.499Z,6.78
2024-02-13T03:20:10.407Z,6.78
2024-02-13T03:21:10.375Z,6.67
2024-02-13T03:22:10.390Z,6.78
2024-02-13T03:23:10.395Z,6.74
2024-02-13T03:24:10.343Z,6.75
2024-02-13T03:25:10.384Z,6.65
2024-02-13T03:26:10.373Z,6.65
2024-02-13T03:27:10.314Z,6.68
2024-02-13T03:28:10.337Z,6.74
2024-02-13T03:29:10.346Z,6.63
2024-02-13T03:30:10.325Z,6.67
2024-02-13T03:31:10.270Z,6.65
2024-02-13T03:32:10.270Z,6.65
2024-02-13T03:33:10.466Z,6.64
2024-02-13T03:34:10.382Z,6.63
2024-02-13T03:35:10.285Z,6.63
2024-02-13T03:36:10.263Z,6.65
2024-02-13T03:37:10.212Z,6.67
2024-02-13T03:38:10.241Z,6.61
2024-02-13T03:39:10.182Z,6.64
2024-02-13T03:40:10.176Z,6.65
2024-02-13T03:41:10.211Z,6.67
2024-02-13T03:42:10.157Z,6.63
2024-02-13T03:43:10.165Z,6.65
2024-02-13T03:44:10.157Z,6.64
2024-02-13T03:45:10.115Z,6.65
2024-02-13T03:46:10.116Z,6.67
2024-02-13T03:47:10.115Z,6.64
2024-02-13T03:48:10.230Z,6.63
2024-02-13T03:49:10.176Z,6.60
2024-02-13T03:50:10.226Z,6.61
2024-02-13T03:51:10.152Z,6.63
2024-02-13T03:52:10.046Z,6.67
2024-02-13T03:53:10.090Z,6.67
2024-02-13T03:54:10.105Z,6.63
2024-02-13T03:55:10.006Z,6.68
2024-02-13T03:56:10.014Z,6.65
2024-02-13T03:57:09.990Z,6.79
2024-02-13T03:58:10.010Z,6.79
2024-02-13T03:59:11.439Z,6.83
2024-02-13T04:00:09.968Z,6.73
2024-02-13T04:01:10.231Z,6.83
2024-02-13T04:02:09.947Z,6.81
2024-02-13T04:03:09.923Z,6.85
2024-02-13T04:04:10.035Z,6.78
2024-02-13T04:05:09.959Z,6.82
2024-02-13T04:06:10.048Z,6.79
2024-02-13T04:07:09.943Z,6.85
2024-02-13T04:08:09.958Z,6.81
2024-02-13T04:09:09.889Z,6.83
2024-02-13T04:10:09.879Z,6.86
2024-02-13T04:11:10.144Z,6.88
2024-02-13T04:12:09.831Z,6.89
2024-02-13T04:13:09.830Z,6.88
2024-02-13T04:14:09.864Z,6.92
2024-02-13T04:15:09.817Z,6.91
2024-02-13T04:16:09.786Z,6.85
2024-02-13T04:17:09.852Z,6.86
2024-02-13T04:18:10.056Z,6.93
2024-02-13T04:19:09.992Z,6.85
2024-02-13T04:20:09.876Z,6.85
2024-02-13T04:21:10.381Z,6.96
2024-02-13T04:22:09.819Z,6.97
2024-02-13T04:23:09.777Z,7.01
2024-02-13T04:24:09.692Z,6.97
2024-02-13T04:25:09.718Z,6.89
2024-02-13T04:26:18.215Z,7.00
2024-02-13T04:27:10.760Z,7.07
2024-02-13T04:28:09.662Z,7.00
2024-02-13T04:29:09.916Z,7.01
2024-02-13T04:30:09.703Z,6.96
2024-02-13T04:31:09.621Z,7.03
2024-02-13T04:32:09.661Z,7.01
2024-02-13T04:33:09.882Z,7.03
2024-02-13T04:34:09.677Z,7.03
2024-02-13T04:35:09.868Z,7.10
2024-02-13T04:36:09.571Z,6.93
2024-02-13T04:37:09.556Z,7.07
2024-02-13T04:38:09.662Z,7.03
2024-02-13T04:39:09.572Z,6.96
2024-02-13T04:40:11.694Z,7.00
2024-02-13T04:41:09.548Z,6.99
2024-02-13T04:42:09.549Z,7.00
2024-02-13T04:43:09.503Z,6.99
2024-02-13T04:44:09.495Z,7.06
2024-02-13T04:45:09.470Z,7.04
2024-02-13T04:46:09.472Z,7.03
2024-02-13T04:47:09.481Z,6.97
2024-02-13T04:48:09.622Z,7.04
2024-02-13T04:49:09.496Z,7.01
2024-02-13T04:50:10.866Z,7.06
2024-02-13T04:51:09.458Z,7.01
2024-02-13T04:52:09.407Z,7.04
2024-02-13T04:53:09.437Z,7.00
2024-02-13T04:54:09.423Z,7.00
2024-02-13T04:55:09.393Z,7.01
2024-02-13T04:56:09.372Z,7.03
2024-02-13T04:57:09.348Z,7.01
2024-02-13T04:58:09.369Z,7.00
2024-02-13T04:59:09.453Z,7.00
2024-02-13T05:00:09.341Z,6.97
2024-02-13T05:01:09.346Z,6.92
2024-02-13T05:02:09.316Z,7.01
2024-02-13T05:03:09.284Z,7.03
2024-02-13T05:04:09.300Z,6.93
2024-02-13T05:05:09.312Z,6.97
2024-02-13T05:06:09.322Z,7.00
2024-02-13T05:07:09.235Z,7.00
2024-02-13T05:08:09.299Z,6.85
2024-02-13T05:09:09.225Z,6.85
2024-02-13T05:10:09.229Z,6.83
2024-02-13T05:11:09.211Z,6.85
2024-02-13T05:12:09.197Z,6.82
2024-02-13T05:13:09.185Z,6.89
2024-02-13T05:14:09.166Z,6.86
2024-02-13T05:15:09.180Z,6.88
2024-02-13T05:16:09.156Z,6.78
2024-02-13T05:17:09.126Z,6.83
2024-02-13T05:18:09.244Z,6.82
2024-02-13T05:19:09.189Z,6.79
2024-02-13T05:20:09.133Z,6.81
2024-02-13T05:21:09.089Z,6.79
2024-02-13T05:22:09.072Z,6.81
2024-02-13T05:23:09.060Z,6.71
2024-02-13T05:24:09.049Z,6.79
2024-02-13T05:25:09.064Z,6.71
2024-02-13T05:26:09.028Z,6.64
2024-02-13T05:27:09.077Z,6.79
2024-02-13T05:28:09.014Z,6.75
2024-02-13T05:29:08.990Z,6.78
2024-02-13T05:30:08.984Z,6.70
2024-02-13T05:31:08.997Z,6.75
2024-02-13T05:32:08.969Z,6.74
2024-02-13T05:33:09.095Z,6.81
2024-02-13T05:34:09.029Z,6.73
2024-02-13T05:35:08.935Z,6.68
2024-02-13T05:36:08.944Z,6.74
2024-02-13T05:37:08.912Z,6.70
2024-02-13T05:38:08.896Z,6.78
2024-02-13T05:39:08.887Z,6.74
2024-02-13T05:40:08.883Z,6.73
2024-02-13T05:41:08.915Z,6.71
2024-02-13T05:42:08.857Z,6.73
2024-02-13T05:43:08.882Z,6.74
2024-02-13T05:44:08.839Z,6.65
2024-02-13T05:45:08.829Z,6.73
2024-02-13T05:46:08.854Z,6.73
2024-02-13T05:47:08.813Z,6.79
2024-02-13T05:48:08.936Z,6.65
2024-02-13T05:49:08.841Z,6.68
2024-02-13T05:50:08.983Z,6.70
2024-02-13T05:51:08.810Z,6.63
2024-02-13T05:52:08.756Z,6.68
2024-02-13T05:53:08.748Z,6.63
2024-02-13T05:54:08.772Z,6.67
2024-02-13T05:55:08.719Z,6.65
2024-02-13T05:56:08.704Z,6.71
2024-02-13T05:57:08.786Z,6.64
2024-02-13T05:58:08.695Z,6.71
2024-02-13T05:59:08.704Z,6.61
2024-02-13T06:00:10.792Z,6.65
2024-02-13T06:01:08.869Z,6.60
2024-02-13T06:02:08.674Z,6.60
2024-02-13T06:03:08.728Z,6.60
2024-02-13T06:04:08.655Z,6.68
2024-02-13T06:05:08.621Z,6.64
2024-02-13T06:06:08.665Z,6.61
2024-02-13T06:07:08.690Z,6.52
2024-02-13T06:08:08.626Z,6.61
2024-02-13T06:09:08.624Z,6.64
2024-02-13T06:10:08.643Z,6.65
2024-02-13T06:11:08.641Z,6.67
2024-02-13T06:12:08.647Z,6.56
2024-02-13T06:13:08.616Z,6.67
2024-02-13T06:14:08.582Z,6.64
2024-02-13T06:15:08.539Z,6.61
2024-02-13T06:16:08.526Z,6.63
2024-02-13T06:17:08.564Z,6.61
2024-02-13T06:18:08.638Z,6.65
2024-02-13T06:19:08.559Z,6.64
2024-02-13T06:20:08.504Z,6.60
2024-02-13T06:21:08.452Z,6.65
2024-02-13T06:22:08.439Z,6.64
2024-02-13T06:23:08.511Z,6.67
2024-02-13T06:24:08.526Z,6.64
2024-02-13T06:25:08.429Z,6.64
2024-02-13T06:26:08.420Z,6.65
2024-02-13T06:27:08.446Z,6.64
2024-02-13T06:28:08.393Z,6.63
2024-02-13T06:29:08.409Z,6.60
2024-02-13T06:30:08.438Z,6.53
2024-02-13T06:31:08.438Z,6.60
2024-02-13T06:32:08.331Z,6.65
2024-02-13T06:33:08.676Z,6.63
2024-02-13T06:34:08.476Z,6.60
2024-02-13T06:35:08.313Z,6.55
2024-02-13T06:36:08.346Z,6.64
2024-02-13T06:37:08.315Z,6.63
2024-02-13T06:38:08.314Z,6.61
2024-02-13T06:39:08.276Z,6.64
2024-02-13T06:40:08.273Z,6.74
2024-02-13T06:41:08.232Z,6.68
2024-02-13T06:42:08.398Z,6.67
2024-02-13T06:43:08.273Z,6.64
2024-02-13T06:44:08.224Z,6.63
2024-02-13T06:45:08.195Z,6.65
2024-02-13T06:46:08.328Z,6.74
2024-02-13T06:47:08.245Z,6.74
2024-02-13T06:48:08.440Z,6.68
2024-02-13T06:49:08.295Z,6.68
2024-02-13T06:50:08.133Z,6.67
2024-02-13T06:51:08.220Z,6.73
2024-02-13T06:52:08.151Z,6.68
2024-02-13T06:53:08.105Z,6.68
2024-02-13T06:54:08.181Z,6.78
2024-02-13T06:55:08.071Z,6.65
2024-02-13T06:56:08.057Z,6.73
2024-02-13T06:57:08.045Z,6.81
2024-02-13T06:58:08.041Z,6.65
2024-02-13T06:59:08.057Z,6.78
2024-02-13T07:00:08.148Z,6.63
2024-02-13T07:01:08.030Z,6.74
2024-02-13T07:02:08.000Z,6.75
2024-02-13T07:03:08.175Z,6.70
2024-02-13T07:04:08.057Z,6.63
2024-02-13T07:05:08.103Z,6.68
2024-02-13T07:06:08.028Z,6.70
2024-02-13T07:07:19.064Z,6.71
2024-02-13T07:08:09.017Z,6.81
2024-02-13T07:09:08.213Z,6.75
2024-02-13T07:10:08.041Z,6.67
2024-02-13T07:11:07.967Z,6.74
2024-02-13T07:12:07.976Z,6.71
2024-02-13T07:13:08.038Z,6.65
2024-02-13T07:14:08.000Z,6.56
2024-02-13T07:15:08.309Z,6.63
2024-02-13T07:16:07.841Z,6.71
2024-02-13T07:17:07.853Z,6.78
2024-02-13T07:18:08.000Z,6.63
2024-02-13T07:19:08.074Z,6.67
2024-02-13T07:20:07.869Z,6.61
2024-02-13T07:21:08.454Z,6.74
2024-02-13T07:22:07.783Z,6.63
2024-02-13T07:23:07.807Z,6.73
2024-02-13T07:24:07.986Z,6.67
2024-02-13T07:25:07.796Z,6.78
2024-02-13T07:26:07.733Z,6.82
2024-02-13T07:27:07.730Z,6.75
2024-02-13T07:28:07.738Z,6.78
2024-02-13T07:29:07.712Z,6.79
2024-02-13T07:30:07.815Z,6.73
2024-02-13T07:31:07.714Z,6.85
2024-02-13T07:32:10.576Z,6.88
2024-02-13T07:33:07.824Z,6.88
2024-02-13T07:34:07.786Z,6.89
2024-02-13T07:35:07.678Z,6.85
2024-02-13T07:36:07.678Z,6.97
2024-02-13T07:37:07.631Z,6.97
2024-02-13T07:38:07.672Z,6.97
2024-02-13T07:39:07.886Z,7.03
2024-02-13T07:40:07.655Z,7.06
2024-02-13T07:41:07.826Z,7.07
2024-02-13T07:42:07.756Z,7.00
2024-02-13T07:43:07.610Z,7.06
2024-02-13T07:44:07.548Z,6.99
2024-02-13T07:45:07.542Z,7.03
2024-02-13T07:46:07.544Z,7.10
2024-02-13T07:47:07.684Z,7.10
2024-02-13T07:48:07.638Z,7.18
2024-02-13T07:49:07.616Z,7.19
2024-02-13T07:50:07.481Z,7.18
2024-02-13T07:51:07.494Z,7.16
2024-02-13T07:52:07.464Z,7.21
2024-02-13T07:53:08.207Z,7.18
2024-02-13T07:54:07.479Z,7.24
2024-02-13T07:55:07.493Z,7.15
2024-02-13T07:56:07.406Z,7.24
2024-02-13T07:57:07.406Z,7.25
2024-02-13T07:58:07.391Z,7.15
2024-02-13T07:59:07.622Z,7.25
2024-02-13T08:00:07.366Z,7.22
2024-02-13T08:01:07.372Z,7.22
2024-02-13T08:02:07.356Z,7.28
2024-02-13T08:03:07.358Z,7.36
2024-02-13T08:04:07.472Z,7.40
2024-02-13T08:05:07.480Z,7.37
2024-02-13T08:06:07.399Z,7.46
2024-02-13T08:07:07.320Z,7.47
2024-02-13T08:08:08.618Z,7.39
2024-02-13T08:09:07.324Z,7.47
2024-02-13T08:10:07.260Z,7.50
2024-02-13T08:11:07.245Z,7.55
2024-02-13T08:12:07.583Z,7.62
2024-02-13T08:13:07.261Z,7.62
2024-02-13T08:14:07.238Z,7.62
2024-02-13T08:15:07.305Z,7.64
2024-02-13T08:16:07.196Z,7.64
2024-02-13T08:17:07.187Z,7.64
2024-02-13T08:18:07.237Z,7.52
2024-02-13T08:19:07.199Z,7.62
2024-02-13T08:20:07.226Z,7.66
2024-02-13T08:21:07.199Z,7.62
2024-02-13T08:22:07.162Z,7.68
2024-02-13T08:23:07.139Z,7.55
2024-02-13T08:24:07.110Z,7.64
2024-02-13T08:25:07.119Z,7.57
2024-02-13T08:26:07.096Z,7.68
2024-02-13T08:27:07.395Z,7.66
2024-02-13T08:28:07.097Z,7.68
2024-02-13T08:29:07.057Z,7.66
2024-02-13T08:30:07.120Z,7.62
2024-02-13T08:31:07.037Z,7.73
2024-02-13T08:32:07.029Z,7.74
2024-02-13T08:33:07.209Z,7.73
2024-02-13T08:34:07.186Z,7.73
2024-02-13T08:35:07.160Z,7.76
2024-02-13T08:36:07.058Z,7.80
2024-02-13T08:37:07.004Z,7.68
2024-02-13T08:38:06.973Z,7.71
2024-02-13T08:39:07.010Z,7.69
2024-02-13T08:40:06.979Z,7.68
2024-02-13T08:41:06.950Z,7.68
2024-02-13T08:42:06.988Z,7.78
2024-02-13T08:43:06.926Z,7.69
2024-02-13T08:44:06.920Z,7.76
2024-02-13T08:45:06.911Z,7.74
2024-02-13T08:46:06.921Z,7.74
2024-02-13T08:47:06.857Z,7.76
2024-02-13T08:48:06.978Z,7.86
2024-02-13T08:49:07.189Z,7.87
2024-02-13T08:50:07.082Z,7.92
2024-02-13T08:51:07.035Z,7.87
2024-02-13T08:52:06.814Z,7.94
2024-02-13T08:53:06.801Z,7.96
2024-02-13T08:54:06.884Z,7.87
2024-02-13T08:55:06.808Z,7.94
2024-02-13T08:56:06.811Z,7.73
2024-02-13T08:57:06.761Z,7.76
2024-02-13T08:58:06.735Z,7.81
2024-02-13T08:59:06.767Z,7.84
2024-02-13T09:00:06.775Z,7.87
2024-02-13T09:01:06.774Z,7.87
2024-02-13T09:02:06.694Z,7.94
2024-02-13T09:03:06.686Z,7.87
2024-02-13T09:04:06.716Z,7.87
2024-02-13T09:05:06.766Z,7.92
2024-02-13T09:06:06.761Z,8.01
2024-02-13T09:07:06.659Z,7.98
2024-02-13T09:08:06.656Z,8.09
2024-02-13T09:09:06.717Z,8.02
2024-02-13T09:10:06.628Z,7.99
2024-02-13T09:11:06.630Z,8.12
2024-02-13T09:12:06.659Z,8.12
2024-02-13T09:13:06.644Z,8.13
2024-02-13T09:14:06.562Z,8.09
2024-02-13T09:15:06.558Z,8.13
2024-02-13T09:16:07.231Z,8.21
2024-02-13T09:17:06.568Z,8.24
2024-02-13T09:18:06.810Z,8.26
2024-02-13T09:19:06.658Z,8.21
2024-02-13T09:20:06.522Z,8.32
2024-02-13T09:21:06.514Z,8.24
2024-02-13T09:22:06.477Z,8.24
2024-02-13T09:23:06.467Z,8.38
2024-02-13T09:24:06.580Z,8.34
2024-02-13T09:25:06.475Z,8.39
2024-02-13T09:26:06.439Z,8.37
2024-02-13T09:27:06.480Z,8.39
2024-02-13T09:28:06.439Z,8.56
2024-02-13T09:29:06.402Z,8.46
2024-02-13T09:30:06.443Z,8.46
2024-02-13T09:31:06.405Z,8.52
2024-02-13T09:32:06.391Z,8.65
2024-02-13T09:33:06.436Z,8.59
2024-02-13T09:34:06.529Z,8.57
2024-02-13T09:35:06.342Z,8.72
2024-02-13T09:36:06.349Z,8.67
2024-02-13T09:37:06.318Z,8.62
2024-02-13T09:38:06.331Z,8.77
2024-02-13T09:39:06.327Z,8.81
2024-02-13T09:40:06.299Z,8.83
2024-02-13T09:41:06.282Z,8.78
2024-02-13T09:42:06.314Z,8.83
2024-02-13T09:43:06.385Z,8.86
2024-02-13T09:44:06.291Z,8.81
2024-02-13T09:45:06.317Z,8.77
2024-02-13T09:46:06.216Z,8.93
2024-02-13T09:47:06.220Z,8.95
2024-02-13T09:48:06.326Z,9.08
2024-02-13T09:49:06.407Z,9.11
2024-02-13T09:50:06.188Z,9.19
2024-02-13T09:51:06.231Z,9.16
2024-02-13T09:52:06.155Z,9.19
2024-02-13T09:53:06.151Z,9.30
2024-02-13T09:54:06.304Z,9.19
2024-02-13T09:55:06.133Z,9.22
2024-02-13T09:56:06.108Z,9.33
2024-02-13T09:57:06.182Z,9.33
2024-02-13T09:58:06.112Z,9.29
2024-02-13T09:59:06.128Z,9.30
2024-02-13T10:00:06.111Z,9.22
2024-02-13T10:01:06.068Z,9.27
2024-02-13T10:02:06.074Z,9.40
2024-02-13T10:03:06.152Z,9.15
2024-02-13T10:04:06.103Z,9.19
2024-02-13T10:05:06.021Z,9.15
2024-02-13T10:06:06.127Z,9.33
2024-02-13T10:07:06.097Z,9.41
2024-02-13T10:08:06.000Z,9.34
2024-02-13T10:09:06.032Z,9.33
2024-02-13T10:10:05.968Z,9.33
2024-02-13T10:11:05.973Z,9.37
2024-02-13T10:12:05.987Z,9.41
2024-02-13T10:13:05.926Z,9.40
2024-02-13T10:14:05.934Z,9.33
2024-02-13T10:15:05.996Z,9.37
2024-02-13T10:16:05.912Z,9.40
2024-02-13T10:17:05.882Z,9.44
2024-02-13T10:18:05.924Z,9.47
2024-02-13T10:19:05.892Z,9.44
2024-02-13T10:20:05.908Z,9.41
2024-02-13T10:21:05.953Z,9.48
2024-02-13T10:22:05.826Z,9.51
2024-02-13T10:23:05.854Z,9.47
2024-02-13T10:24:05.976Z,9.40
2024-02-13T10:25:05.822Z,9.47
2024-02-13T10:26:05.817Z,9.32
2024-02-13T10:27:05.842Z,9.37
2024-02-13T10:28:05.761Z,9.44
2024-02-13T10:29:05.792Z,9.48
2024-02-13T10:30:05.817Z,9.41
2024-02-13T10:31:05.756Z,9.55
2024-02-13T10:32:05.727Z,9.44
2024-02-13T10:33:05.810Z,9.63
2024-02-13T10:34:05.716Z,9.62
2024-02-13T10:35:05.848Z,9.62
2024-02-13T10:36:05.744Z,9.70
2024-02-13T10:37:05.662Z,9.65
2024-02-13T10:38:05.661Z,9.69
2024-02-13T10:39:05.685Z,9.69
2024-02-13T10:40:05.632Z,9.75
2024-02-13T10:41:05.640Z,9.78
2024-02-13T10:42:05.613Z,9.84
2024-02-13T10:43:05.628Z,9.77
2024-02-13T10:44:05.586Z,9.83
2024-02-13T10:45:05.684Z,9.65
2024-02-13T10:46:05.564Z,9.78
2024-02-13T10:47:05.578Z,9.80
2024-02-13T10:48:05.653Z,9.67
2024-02-13T10:49:05.612Z,9.57
2024-02-13T10:50:05.625Z,9.57
2024-02-13T10:51:05.605Z,9.67
2024-02-13T10:52:05.518Z,9.72
2024-02-13T10:53:05.487Z,9.57
2024-02-13T10:54:05.503Z,9.67
2024-02-13T10:55:05.492Z,9.67
2024-02-13T10:56:05.467Z,9.72
2024-02-13T10:57:05.461Z,9.81
2024-02-13T10:58:13.846Z,9.77
2024-02-13T10:59:06.423Z,9.84
2024-02-13T11:00:05.503Z,9.84
2024-02-13T11:01:05.617Z,9.81
2024-02-13T11:02:05.765Z,9.77
2024-02-13T11:03:05.451Z,9.87
2024-02-13T11:04:05.451Z,9.90
2024-02-13T11:05:05.432Z,9.85
2024-02-13T11:06:05.441Z,9.99
2024-02-13T11:07:05.381Z,10.08
2024-02-13T11:08:05.326Z,10.28
2024-02-13T11:09:05.412Z,10.31
2024-02-13T11:10:05.306Z,10.49
2024-02-13T11:11:05.319Z,10.75
2024-02-13T11:12:05.378Z,10.87
2024-02-13T11:13:05.300Z,10.73
2024-02-13T11:14:05.273Z,10.73
2024-02-13T11:15:05.388Z,10.86
2024-02-13T11:16:05.264Z,10.83
2024-02-13T11:17:05.234Z,10.79
2024-02-13T11:18:05.315Z,10.82
2024-02-13T11:19:05.413Z,10.98
2024-02-13T11:20:05.342Z,10.95
2024-02-13T11:21:05.280Z,10.98
2024-02-13T11:22:05.182Z,10.97
2024-02-13T11:23:05.166Z,10.93
2024-02-13T11:24:05.272Z,10.97
2024-02-13T11:25:05.166Z,11.04
2024-02-13T11:26:05.138Z,10.95
2024-02-13T11:27:19.520Z,10.97
2024-02-13T11:28:06.111Z,10.98
2024-02-13T11:29:05.094Z,10.83
2024-02-13T11:30:05.130Z,10.73
2024-02-13T11:31:05.077Z,10.65
2024-02-13T11:32:05.092Z,10.76
2024-02-13T11:33:05.180Z,10.93
2024-02-13T11:34:05.359Z,10.86
2024-02-13T11:35:05.150Z,10.83
2024-02-13T11:36:05.063Z,10.79
2024-02-13T11:37:06.679Z,10.87
2024-02-13T11:38:05.000Z,10.86
2024-02-13T11:39:05.055Z,10.87
2024-02-13T11:40:04.999Z,10.93
2024-02-13T11:41:04.967Z,10.85
2024-02-13T11:42:04.977Z,10.86
2024-02-13T11:43:04.954Z,10.86
2024-02-13T11:44:04.929Z,10.78
2024-02-13T11:45:05.068Z,10.87
2024-02-13T11:46:04.914Z,10.86
2024-02-13T11:47:04.921Z,10.68
2024-02-13T11:48:05.009Z,10.75
2024-02-13T11:49:05.012Z,10.93
2024-02-13T11:50:04.953Z,10.94
2024-02-13T11:51:05.232Z,10.97
2024-02-13T11:52:04.876Z,10.94
2024-02-13T11:53:04.836Z,10.98
2024-02-13T11:54:04.841Z,11.03
2024-02-13T11:55:04.814Z,11.04
2024-02-13T11:56:04.810Z,10.93
2024-02-13T11:57:04.888Z,10.90
2024-02-13T11:58:04.790Z,10.85
2024-02-13T11:59:04.781Z,10.82
2024-02-13T12:00:04.787Z,10.98
2024-02-13T12:01:04.935Z,10.97
2024-02-13T12:02:04.762Z,11.05
2024-02-13T12:03:04.766Z,11.05
2024-02-13T12:04:04.781Z,11.16
2024-02-13T12:05:04.704Z,11.22
2024-02-13T12:06:04.755Z,11.22
2024-02-13T12:07:04.748Z,11.13
2024-02-13T12:08:04.675Z,11.13
2024-02-13T12:09:04.923Z,11.15
2024-02-13T12:10:04.662Z,11.19
2024-02-13T12:11:04.656Z,11.16
2024-02-13T12:12:04.665Z,11.30
2024-02-13T12:13:04.614Z,11.34
2024-02-13T12:14:04.637Z,11.38
2024-02-13T12:15:04.610Z,11.40
2024-02-13T12:16:04.588Z,11.45
2024-02-13T12:17:04.574Z,11.36
2024-02-13T12:18:04.797Z,11.48
2024-02-13T12:19:05.005Z,11.40
2024-02-13T12:20:04.563Z,11.49
2024-02-13T12:21:04.588Z,11.49
2024-02-13T12:22:04.519Z,11.45
2024-02-13T12:23:04.550Z,11.52
2024-02-13T12:24:04.548Z,11.43
2024-02-13T12:25:04.481Z,11.45
2024-02-13T12:26:04.502Z,11.54
2024-02-13T12:27:04.527Z,11.49
2024-02-13T12:28:04.451Z,11.52
2024-02-13T12:29:04.466Z,11.52
2024-02-13T12:30:04.449Z,11.55
2024-02-13T12:31:04.417Z,11.64
2024-02-13T12:32:04.419Z,11.73
2024-02-13T12:33:04.528Z,11.76
2024-02-13T12:34:04.549Z,11.77
2024-02-13T12:35:04.487Z,11.80
2024-02-13T12:36:04.512Z,11.70
2024-02-13T12:37:04.353Z,11.80
2024-02-13T12:38:04.349Z,11.82
2024-02-13T12:39:04.571Z,11.88
2024-02-13T12:40:04.344Z,11.95
2024-02-13T12:41:04.338Z,11.80
2024-02-13T12:42:06.524Z,11.77
2024-02-13T12:43:04.300Z,11.74
2024-02-13T12:44:04.289Z,11.79
2024-02-13T12:45:04.289Z,11.73
2024-02-13T12:46:04.361Z,11.69
2024-02-13T12:47:04.245Z,11.58
2024-02-13T12:48:04.372Z,11.64
2024-02-13T12:49:04.390Z,11.59
2024-02-13T12:50:04.308Z,11.43
2024-02-13T12:51:04.319Z,11.45
2024-02-13T12:52:04.198Z,11.54
2024-02-13T12:53:04.210Z,11.43
2024-02-13T12:54:04.209Z,11.33
2024-02-13T12:55:04.201Z,11.27
2024-02-13T12:56:04.165Z,11.22
2024-02-13T12:57:04.154Z,11.16
2024-02-13T12:58:04.159Z,11.18
2024-02-13T12:59:04.108Z,11.12
2024-02-13T13:00:04.140Z,11.19
2024-02-13T13:01:04.200Z,11.18
2024-02-13T13:02:04.105Z,11.09
2024-02-13T13:03:04.104Z,11.05
2024-02-13T13:04:04.087Z,11.04
2024-02-13T13:05:04.045Z,11.03
2024-02-13T13:06:04.257Z,11.12
2024-02-13T13:07:04.084Z,11.22
2024-02-13T13:08:04.049Z,11.19
2024-02-13T13:09:08.905Z,11.28
2024-02-13T13:10:05.014Z,11.30
2024-02-13T13:11:04.016Z,11.31
2024-02-13T13:12:04.046Z,11.38
2024-02-13T13:13:03.998Z,11.25
2024-02-13T13:14:03.989Z,11.23